createdAt,value
2023-04-16T00:01:05.451Z,20.55
2023-04-16T00:03:34.159Z,22.75
2023-04-16T00:06:02.376Z,18.95
2023-04-16T00:08:32.159Z,21.15
2023-04-16T00:11:00.454Z,27.23
2023-04-16T00:13:28.546Z,22.30
2023-04-16T00:15:57.122Z,26.35
2023-04-16T00:18:25.303Z,15.70
2023-04-16T00:20:53.859Z,25.88
2023-04-16T00:23:22.078Z,24.10
2023-04-16T00:25:51.857Z,17.70
2023-04-16T00:28:21.220Z,24.92
2023-04-16T00:30:49.382Z,27.83
2023-04-16T00:33:17.785Z,21.05
2023-04-16T00:35:47.177Z,27.52
2023-04-16T00:38:16.155Z,15.35
2023-04-16T00:40:44.713Z,12.75
2023-04-16T00:43:22.834Z,28.30
2023-04-16T00:45:51.624Z,23.17
2023-04-16T00:48:20.134Z,26.25
2023-04-16T00:50:48.667Z,30.33
2023-04-16T00:53:16.808Z,28.73
2023-04-16T00:55:45.014Z,25.55
2023-04-16T00:58:14.579Z,25.90
2023-04-16T01:00:42.705Z,26.45
2023-04-16T01:03:11.293Z,24.45
2023-04-16T01:05:39.970Z,28.67
2023-04-16T01:08:08.424Z,24.05
2023-04-16T01:10:36.815Z,27.02
2023-04-16T01:13:04.883Z,28.27
2023-04-16T01:15:34.707Z,29.98
2023-04-16T01:18:02.923Z,23.58
2023-04-16T01:20:31.160Z,29.48
2023-04-16T01:23:01.088Z,27.52
2023-04-16T01:25:29.175Z,27.25
2023-04-16T01:27:59.470Z,33.78
2023-04-16T01:30:27.957Z,29.85
2023-04-16T01:32:56.376Z,29.90
2023-04-16T01:35:24.956Z,26.98
2023-04-16T01:37:53.429Z,35.15
2023-04-16T01:40:22.914Z,30.55
2023-04-16T01:42:51.176Z,26.15
2023-04-16T01:45:19.425Z,30.13
2023-04-16T01:47:48.332Z,33.53
2023-04-16T01:50:16.810Z,32.67
2023-04-16T01:52:45.104Z,28.38
2023-04-16T01:55:13.386Z,29.13
2023-04-16T01:57:42.911Z,27.98
2023-04-16T02:00:11.940Z,29.88
2023-04-16T02:02:41.101Z,28.83
2023-04-16T02:05:09.624Z,25.52
2023-04-16T02:07:37.707Z,24.67
2023-04-16T02:10:07.431Z,29.67
2023-04-16T02:12:35.535Z,30.23
2023-04-16T02:15:05.654Z,31.88
2023-04-16T02:17:33.798Z,28.20
2023-04-16T02:20:03.680Z,26.08
2023-04-16T02:22:31.764Z,28.73
2023-04-16T02:24:59.881Z,24.60
2023-04-16T02:27:27.957Z,23.55
2023-04-16T02:29:56.333Z,22.40
2023-04-16T02:32:25.911Z,27.67
2023-04-16T02:34:54.012Z,25.83
2023-04-16T02:37:22.130Z,35.13
2023-04-16T02:39:51.150Z,23.17
2023-04-16T02:42:19.530Z,25.08
2023-04-16T02:44:47.693Z,25.15
2023-04-16T02:47:15.824Z,30.08
2023-04-16T02:49:45.331Z,28.63
2023-04-16T02:52:15.464Z,29.10
2023-04-16T02:54:43.772Z,28.83
2023-04-16T02:57:11.906Z,24.38
2023-04-16T02:59:40.189Z,30.25
2023-04-16T03:02:08.737Z,29.75
2023-04-16T03:04:37.054Z,29.85
2023-04-16T03:07:06.677Z,13.40
2023-04-16T03:09:35.080Z,25.48
2023-04-16T03:12:03.518Z,27.13
2023-04-16T03:14:31.903Z,31.73
2023-04-16T03:17:00.096Z,22.90
2023-04-16T03:19:28.280Z,29.33
2023-04-16T03:21:56.386Z,30.05
2023-04-16T03:24:26.141Z,29.35
2023-04-16T03:26:54.245Z,32.15
2023-04-16T03:29:22.572Z,33.95
2023-04-16T03:31:50.956Z,32.58
2023-04-16T03:34:19.074Z,29.10
2023-04-16T03:36:47.166Z,33.92
2023-04-16T03:39:15.594Z,28.92
2023-04-16T03:41:45.049Z,33.45
2023-04-16T03:44:13.160Z,32.13
2023-04-16T03:46:41.333Z,33.75
2023-04-16T03:49:10.301Z,32.22
2023-04-16T03:51:38.510Z,34.08
2023-04-16T03:54:06.624Z,38.58
2023-04-16T03:56:34.686Z,34.47
2023-04-16T03:59:04.621Z,24.67
2023-04-16T04:01:32.738Z,30.85
2023-04-16T04:04:02.046Z,32.42
2023-04-16T04:06:30.935Z,29.90
2023-04-16T04:08:59.040Z,28.05
2023-04-16T04:11:27.340Z,27.83
2023-04-16T04:13:55.669Z,30.38
2023-04-16T04:16:25.418Z,30.30
2023-04-16T04:18:53.546Z,32.35
2023-04-16T04:21:21.949Z,30.17
2023-04-16T04:23:50.385Z,26.42
2023-04-16T04:26:18.907Z,31.77
2023-04-16T04:28:47.518Z,33.60
2023-04-16T04:31:16.237Z,25.83
2023-04-16T04:33:46.484Z,30.60
2023-04-16T04:36:14.552Z,22.60
2023-04-16T04:38:42.603Z,30.67
2023-04-16T04:41:10.870Z,26.00
2023-04-16T04:43:39.287Z,27.90
2023-04-16T04:46:07.411Z,27.02
2023-04-16T04:48:35.526Z,32.20
2023-04-16T04:51:05.554Z,35.53
2023-04-16T04:53:33.971Z,26.80
2023-04-16T04:56:12.193Z,37.17
2023-04-16T04:58:40.906Z,25.80
2023-04-16T05:01:09.051Z,31.48
2023-04-16T05:03:37.707Z,29.38
2023-04-16T05:06:08.867Z,27.90
2023-04-16T05:08:36.988Z,30.95
2023-04-16T05:11:05.930Z,25.40
2023-04-16T05:13:34.000Z,31.08
2023-04-16T05:16:02.316Z,22.48
2023-04-16T05:18:31.450Z,27.02
2023-04-16T05:20:59.895Z,31.65
2023-04-16T05:23:29.745Z,28.40
2023-04-16T05:25:57.932Z,28.85
2023-04-16T05:28:26.054Z,28.42
2023-04-16T05:30:54.185Z,31.88
2023-04-16T05:33:22.606Z,28.55
2023-04-16T05:35:51.335Z,32.25
2023-04-16T05:38:19.462Z,30.33
2023-04-16T05:40:49.208Z,27.88
2023-04-16T05:43:17.307Z,38.05
2023-04-16T05:45:45.533Z,31.80
2023-04-16T05:48:13.915Z,30.00
2023-04-16T05:50:41.993Z,33.08
2023-04-16T05:53:11.274Z,30.25
2023-04-16T05:55:39.363Z,30.42
2023-04-16T05:58:09.172Z,28.75
2023-04-16T06:00:37.469Z,34.17
2023-04-16T06:03:06.022Z,29.48
2023-04-16T06:05:34.685Z,29.27
2023-04-16T06:08:02.792Z,28.27
2023-04-16T06:10:30.963Z,24.98
2023-04-16T06:12:59.045Z,32.33
2023-04-16T06:15:28.954Z,29.83
2023-04-16T06:17:59.456Z,28.45
2023-04-16T06:20:29.539Z,31.88
2023-04-16T06:22:58.190Z,32.42
2023-04-16T06:25:26.586Z,37.88
2023-04-16T06:27:54.655Z,32.50
2023-04-16T06:30:23.028Z,30.33
2023-04-16T06:32:52.632Z,27.02
2023-04-16T06:35:21.179Z,32.95
2023-04-16T06:37:49.236Z,27.90
2023-04-16T06:40:17.804Z,30.35
2023-04-16T06:42:46.074Z,30.55
2023-04-16T06:45:14.725Z,33.75
2023-04-16T06:47:42.870Z,32.42
2023-04-16T06:50:12.954Z,28.48
2023-04-16T06:52:41.867Z,30.63
2023-04-16T06:55:10.678Z,31.45
2023-04-16T06:57:41.017Z,29.38
2023-04-16T07:00:10.550Z,29.10
2023-04-16T07:02:38.756Z,30.33
2023-04-16T07:05:07.488Z,31.08
2023-04-16T07:07:37.056Z,27.58
2023-04-16T07:10:05.860Z,29.42
2023-04-16T07:12:34.188Z,27.25
2023-04-16T07:15:02.310Z,28.70
2023-04-16T07:17:30.741Z,27.73
2023-04-16T07:19:58.846Z,28.98
2023-04-16T07:22:27.036Z,29.80
2023-04-16T07:24:56.521Z,27.35
2023-04-16T07:27:25.016Z,28.42
2023-04-16T07:29:53.161Z,28.42
2023-04-16T07:32:22.608Z,29.20
2023-04-16T07:34:51.489Z,33.08
2023-04-16T07:37:20.036Z,29.33
2023-04-16T07:39:48.711Z,27.30
2023-04-16T07:42:18.229Z,30.63
2023-04-16T07:44:46.460Z,31.40
2023-04-16T07:47:14.541Z,30.27
2023-04-16T07:49:43.067Z,37.05
2023-04-16T07:52:11.522Z,40.17
2023-04-16T07:54:39.618Z,33.05
2023-04-16T07:57:07.737Z,31.85
2023-04-16T07:59:37.165Z,29.70
2023-04-16T08:02:06.341Z,32.47
2023-04-16T08:04:34.932Z,33.10
2023-04-16T08:07:03.122Z,31.95
2023-04-16T08:09:31.433Z,27.50
2023-04-16T08:12:01.193Z,35.53
2023-04-16T08:14:29.323Z,32.05
2023-04-16T08:16:58.997Z,28.15
2023-04-16T08:19:27.070Z,29.23
2023-04-16T08:21:55.862Z,35.72
2023-04-16T08:24:24.056Z,36.72
2023-04-16T08:26:52.727Z,40.92
2023-04-16T08:29:21.730Z,34.67
2023-04-16T08:31:49.881Z,31.95
2023-04-16T08:34:19.858Z,25.75
2023-04-16T08:36:48.015Z,32.28
2023-04-16T08:39:16.199Z,28.83
2023-04-16T08:41:47.834Z,33.70
2023-04-16T08:44:21.574Z,26.42
2023-04-16T08:46:50.649Z,33.83
2023-04-16T08:49:20.097Z,31.15
2023-04-16T08:51:53.543Z,28.40
2023-04-16T08:54:37.304Z,30.13
2023-04-16T08:57:08.404Z,25.73
2023-04-16T08:59:37.976Z,32.35
2023-04-16T09:02:07.916Z,28.33
2023-04-16T09:04:39.341Z,30.55
2023-04-16T09:07:09.796Z,34.35
2023-04-16T09:09:40.269Z,30.90
2023-04-16T09:12:09.873Z,28.10
2023-04-16T09:14:41.871Z,36.03
2023-04-16T09:17:10.883Z,28.35
2023-04-16T09:19:40.365Z,27.92
2023-04-16T09:22:08.830Z,28.83
2023-04-16T09:24:38.472Z,30.17
2023-04-16T09:27:06.705Z,28.02
2023-04-16T09:29:37.045Z,29.55
2023-04-16T09:32:06.677Z,28.25
2023-04-16T09:34:35.752Z,25.50
2023-04-16T09:37:18.375Z,32.45
2023-04-16T09:39:53.536Z,25.85
2023-04-16T09:42:23.746Z,32.00
2023-04-16T09:44:52.373Z,34.67
2023-04-16T09:47:21.020Z,30.20
2023-04-16T09:49:50.125Z,29.70
2023-04-16T09:52:22.104Z,26.63
2023-04-16T09:54:51.553Z,27.50
2023-04-16T09:57:23.168Z,26.90
2023-04-16T09:59:54.421Z,30.63
2023-04-16T10:02:23.784Z,25.65
2023-04-16T10:04:53.895Z,25.13
2023-04-16T10:07:23.740Z,28.05
2023-04-16T10:09:52.681Z,27.77
2023-04-16T10:12:21.709Z,27.77
2023-04-16T10:14:50.630Z,25.13
2023-04-16T10:17:19.732Z,26.25
2023-04-16T10:19:48.160Z,29.63
2023-04-16T10:22:17.019Z,28.50
2023-04-16T10:24:48.165Z,23.17
2023-04-16T10:27:17.580Z,29.55
2023-04-16T10:29:46.756Z,21.75
2023-04-16T10:32:16.047Z,25.60
2023-04-16T10:34:44.497Z,25.23
2023-04-16T10:37:12.951Z,23.75
2023-04-16T10:39:41.036Z,27.25
2023-04-16T10:42:12.859Z,25.40
2023-04-16T10:44:45.062Z,24.80
2023-04-16T10:47:15.179Z,22.80
2023-04-16T10:49:43.872Z,25.10
2023-04-16T10:52:13.531Z,25.67
2023-04-16T10:54:42.230Z,25.60
2023-04-16T10:57:19.100Z,23.40
2023-04-16T10:59:47.508Z,23.40
2023-04-16T11:02:18.319Z,24.40
2023-04-16T11:04:47.923Z,26.20
2023-04-16T11:07:18.966Z,21.95
2023-04-16T11:09:51.881Z,23.13
2023-04-16T11:12:22.471Z,21.77
2023-04-16T11:14:52.467Z,19.25
2023-04-16T11:17:21.536Z,20.45
2023-04-16T11:19:49.908Z,23.65
2023-04-16T11:22:22.132Z,22.38
2023-04-16T11:24:56.303Z,22.25
2023-04-16T11:27:26.466Z,22.45
2023-04-16T11:30:02.323Z,23.20
2023-04-16T11:32:33.224Z,17.23
2023-04-16T11:35:03.903Z,23.23
2023-04-16T11:37:36.137Z,17.83
2023-04-16T11:40:07.209Z,23.60
2023-04-16T11:42:37.931Z,22.73
2023-04-16T11:45:06.669Z,21.45
2023-04-16T11:47:45.803Z,24.33
2023-04-16T11:50:18.737Z,21.35
2023-04-16T11:52:47.279Z,20.90
2023-04-16T11:55:15.569Z,20.98
2023-04-16T11:57:46.275Z,20.80
2023-04-16T12:00:15.367Z,20.58
2023-04-16T12:02:44.846Z,19.33
2023-04-16T12:05:29.133Z,19.70
2023-04-16T12:07:58.289Z,18.55
2023-04-16T12:10:27.114Z,18.10
2023-04-16T12:13:10.785Z,21.17
2023-04-16T12:15:46.204Z,22.75
2023-04-16T12:18:14.680Z,15.73
2023-04-16T12:20:43.665Z,16.90
2023-04-16T12:23:23.063Z,16.60
2023-04-16T12:25:52.725Z,18.17
2023-04-16T12:28:33.142Z,17.40
2023-04-16T12:31:02.053Z,18.67
2023-04-16T12:33:30.695Z,15.48
2023-04-16T12:35:59.476Z,13.90
2023-04-16T12:38:28.653Z,16.17
2023-04-16T12:40:58.431Z,17.45
2023-04-16T12:43:27.115Z,13.63
2023-04-16T12:45:56.612Z,11.98
2023-04-16T12:48:24.782Z,14.45
2023-04-16T12:50:55.417Z,11.30
2023-04-16T12:53:23.529Z,13.90
2023-04-16T12:55:51.657Z,10.45
2023-04-16T12:58:19.767Z,12.27
2023-04-16T13:00:48.217Z,10.40
2023-04-16T13:03:17.955Z,10.50
2023-04-16T13:05:46.449Z,10.88
2023-04-16T13:08:14.603Z,11.43
2023-04-16T13:10:43.256Z,11.40
2023-04-16T13:13:11.371Z,9.75
2023-04-16T13:15:39.483Z,12.02
2023-04-16T13:18:07.662Z,8.93
2023-04-16T13:20:37.124Z,10.18
2023-04-16T13:23:05.561Z,10.07
2023-04-16T13:25:33.678Z,6.90
2023-04-16T13:28:02.200Z,9.80
2023-04-16T13:30:30.706Z,10.90
2023-04-16T13:32:59.159Z,7.47
2023-04-16T13:35:27.759Z,5.82
2023-04-16T13:37:57.212Z,11.90
2023-04-16T13:40:25.475Z,9.35
2023-04-16T13:42:53.544Z,7.90
2023-04-16T13:45:21.629Z,10.95
2023-04-16T13:47:49.838Z,9.35
2023-04-16T13:50:18.212Z,10.20
2023-04-16T13:52:46.658Z,12.52
2023-04-16T13:55:19.167Z,12.30
2023-04-16T13:57:48.334Z,11.50
2023-04-16T14:00:17.736Z,11.95
2023-04-16T14:02:48.700Z,11.27
2023-04-16T14:05:17.072Z,12.95
2023-04-16T14:07:45.142Z,4.97
2023-04-16T14:10:13.463Z,12.55
2023-04-16T14:12:44.729Z,10.48
2023-04-16T14:15:15.164Z,15.23
2023-04-16T14:17:44.145Z,11.70
2023-04-16T14:20:14.106Z,12.50
2023-04-16T14:22:43.924Z,11.68
2023-04-16T14:25:12.028Z,16.20
2023-04-16T14:27:41.502Z,12.07
2023-04-16T14:30:11.679Z,15.07
2023-04-16T14:32:40.142Z,11.52
2023-04-16T14:35:09.323Z,11.82
2023-04-16T14:37:38.485Z,14.75
2023-04-16T14:40:09.172Z,12.73
2023-04-16T14:42:37.838Z,12.05
2023-04-16T14:45:07.374Z,12.23
2023-04-16T14:47:42.785Z,10.52
2023-04-16T14:50:11.710Z,9.20
2023-04-16T14:52:40.082Z,13.35
2023-04-16T14:55:08.596Z,10.95
2023-04-16T14:57:37.037Z,11.63
2023-04-16T15:00:07.920Z,10.90
2023-04-16T15:02:38.201Z,10.85
2023-04-16T15:05:07.924Z,12.73
2023-04-16T15:07:36.155Z,9.73
2023-04-16T15:10:05.154Z,12.75
2023-04-16T15:12:33.280Z,10.30
2023-04-16T15:15:01.673Z,11.07
2023-04-16T15:17:29.825Z,10.68
2023-04-16T15:19:59.369Z,12.73
2023-04-16T15:22:27.987Z,10.15
2023-04-16T15:24:56.051Z,12.13
2023-04-16T15:27:24.115Z,10.20
2023-04-16T15:29:53.972Z,10.77
2023-04-16T15:32:22.161Z,10.70
2023-04-16T15:34:50.431Z,11.75
2023-04-16T15:37:19.880Z,10.93
2023-04-16T15:39:47.992Z,12.00
2023-04-16T15:42:16.293Z,12.48
2023-04-16T15:44:44.664Z,10.82
2023-04-16T15:47:12.758Z,9.73
2023-04-16T15:49:41.296Z,12.38
2023-04-16T15:52:09.854Z,10.80
2023-04-16T15:54:39.448Z,11.65
2023-04-16T15:57:07.536Z,11.48
2023-04-16T15:59:35.662Z,11.95
2023-04-16T16:02:04.212Z,11.30
2023-04-16T16:04:32.496Z,9.55
2023-04-16T16:07:02.820Z,10.02
2023-04-16T16:09:30.991Z,8.93
2023-04-16T16:12:00.761Z,8.35
2023-04-16T16:14:28.852Z,11.32
2023-04-16T16:16:57.289Z,14.55
2023-04-16T16:19:25.368Z,10.80
2023-04-16T16:21:53.876Z,12.68
2023-04-16T16:24:22.224Z,10.82
2023-04-16T16:26:50.362Z,8.50
2023-04-16T16:29:19.845Z,9.30
2023-04-16T16:31:48.271Z,12.85
2023-04-16T16:34:20.950Z,3.83
2023-04-16T16:36:49.866Z,12.32
2023-04-16T16:39:18.245Z,9.75
2023-04-16T16:41:47.546Z,12.18
2023-04-16T16:44:15.757Z,11.57
2023-04-16T16:46:45.665Z,11.57
2023-04-16T16:49:13.821Z,10.88
2023-04-16T16:51:41.912Z,9.25
2023-04-16T16:54:10.055Z,11.15
2023-04-16T16:56:38.173Z,14.93
2023-04-16T16:59:07.701Z,11.50
2023-04-16T17:01:36.104Z,15.52
2023-04-16T17:04:06.022Z,11.05
2023-04-16T17:06:34.997Z,10.50
2023-04-16T17:09:03.417Z,10.02
2023-04-16T17:11:31.824Z,8.98
2023-04-16T17:13:59.950Z,13.02
2023-04-16T17:16:28.400Z,10.77
2023-04-16T17:18:57.206Z,10.82
2023-04-16T17:21:28.238Z,12.55
2023-04-16T17:23:58.097Z,13.80
2023-04-16T17:26:26.317Z,13.95
2023-04-16T17:28:54.848Z,10.98
2023-04-16T17:31:23.917Z,13.38
2023-04-16T17:33:53.093Z,13.00
2023-04-16T17:36:23.338Z,14.25
2023-04-16T17:38:52.801Z,10.35
2023-04-16T17:41:21.068Z,13.85
2023-04-16T17:43:49.905Z,11.00
2023-04-16T17:46:18.520Z,11.70
2023-04-16T17:48:48.235Z,11.68
2023-04-16T17:51:16.684Z,12.35
2023-04-16T17:53:45.099Z,12.57
2023-04-16T17:56:15.217Z,13.65
2023-04-16T17:58:43.398Z,16.88
2023-04-16T18:01:11.905Z,12.30
2023-04-16T18:03:42.110Z,11.90
2023-04-16T18:06:10.497Z,12.43
2023-04-16T18:08:38.734Z,14.98
2023-04-16T18:11:10.115Z,11.05
2023-04-16T18:13:39.663Z,14.15
2023-04-16T18:16:14.601Z,12.20
2023-04-16T18:18:42.820Z,13.13
2023-04-16T18:21:11.202Z,9.98
2023-04-16T18:23:39.348Z,12.35
2023-04-16T18:26:09.390Z,12.55
2023-04-16T18:28:40.097Z,12.20
2023-04-16T18:31:08.329Z,13.20
2023-04-16T18:33:54.152Z,11.43
2023-04-16T18:36:25.000Z,13.18
2023-04-16T18:39:01.701Z,13.38
2023-04-16T18:41:31.005Z,13.35
2023-04-16T18:44:00.628Z,13.95
2023-04-16T18:46:28.913Z,11.65
2023-04-16T18:48:59.063Z,12.93
2023-04-16T18:51:27.500Z,11.82
2023-04-16T18:53:55.715Z,15.68
2023-04-16T18:56:23.854Z,14.02
2023-04-16T18:58:51.977Z,13.18
2023-04-16T19:01:21.641Z,13.68
2023-04-16T19:03:49.828Z,12.73
2023-04-16T19:06:18.297Z,12.98
2023-04-16T19:08:46.469Z,12.07
2023-04-16T19:11:15.033Z,12.25
2023-04-16T19:13:43.768Z,12.48
2023-04-16T19:16:12.780Z,10.77
2023-04-16T19:18:42.683Z,9.45
2023-04-16T19:21:12.378Z,8.38
2023-04-16T19:23:40.654Z,12.20
2023-04-16T19:26:08.804Z,10.95
2023-04-16T19:28:39.085Z,11.35
2023-04-16T19:31:07.368Z,14.95
2023-04-16T19:33:36.133Z,11.57
2023-04-16T19:36:06.090Z,13.05
2023-04-16T19:38:34.410Z,10.95
2023-04-16T19:41:02.544Z,12.20
2023-04-16T19:43:31.174Z,10.93
2023-04-16T19:45:59.503Z,10.82
2023-04-16T19:48:27.818Z,9.30
2023-04-16T19:50:55.942Z,10.93
2023-04-16T19:53:25.770Z,10.18
2023-04-16T19:55:54.004Z,11.40
2023-04-16T19:58:22.077Z,12.18
2023-04-16T20:00:50.280Z,9.55
2023-04-16T20:03:18.462Z,11.30
2023-04-16T20:05:49.476Z,11.88
2023-04-16T20:08:17.660Z,9.98
2023-04-16T20:10:47.140Z,10.68
2023-04-16T20:13:17.319Z,11.45
2023-04-16T20:15:47.254Z,9.73
2023-04-16T20:18:15.400Z,12.95
2023-04-16T20:20:43.500Z,11.73
2023-04-16T20:23:11.674Z,13.32
2023-04-16T20:25:42.515Z,10.07
2023-04-16T20:28:12.219Z,9.20
2023-04-16T20:30:40.354Z,11.38
2023-04-16T20:33:09.016Z,10.50
2023-04-16T20:35:37.510Z,8.60
2023-04-16T20:38:05.637Z,10.95
2023-04-16T20:40:34.132Z,13.52
2023-04-16T20:43:02.213Z,14.35
2023-04-16T20:45:38.033Z,9.77
2023-04-16T20:48:06.689Z,14.75
2023-04-16T20:50:34.993Z,13.63
2023-04-16T20:53:03.506Z,12.68
2023-04-16T20:55:31.619Z,13.13
2023-04-16T20:57:59.718Z,11.35
2023-04-16T21:00:28.357Z,12.88
2023-04-16T21:02:58.290Z,14.73
2023-04-16T21:05:26.897Z,13.70
2023-04-16T21:07:55.915Z,13.75
2023-04-16T21:10:24.051Z,12.30
2023-04-16T21:12:52.369Z,12.95
2023-04-16T21:15:20.502Z,11.73
2023-04-16T21:17:48.595Z,12.70
2023-04-16T21:20:18.486Z,12.43
2023-04-16T21:22:46.981Z,11.73
2023-04-16T21:25:15.246Z,13.20
2023-04-16T21:27:43.332Z,14.05
2023-04-16T21:30:12.543Z,14.02
2023-04-16T21:32:40.658Z,13.90
2023-04-16T21:35:09.582Z,13.02
2023-04-16T21:37:39.244Z,11.73
2023-04-16T21:40:08.923Z,14.55
2023-04-16T21:42:39.767Z,15.02
2023-04-16T21:45:09.550Z,15.25
2023-04-16T21:47:38.157Z,13.68
2023-04-16T21:50:07.155Z,15.48
2023-04-16T21:52:40.750Z,12.27
2023-04-16T21:55:11.290Z,13.20
2023-04-16T21:57:39.356Z,15.30
2023-04-16T22:00:13.573Z,16.27
2023-04-16T22:02:43.379Z,11.32
2023-04-16T22:05:12.185Z,13.50
2023-04-16T22:07:40.586Z,13.82
2023-04-16T22:10:13.536Z,11.60
2023-04-16T22:12:44.752Z,14.35
2023-04-16T22:15:14.492Z,12.80
2023-04-16T22:17:42.652Z,14.65
2023-04-16T22:20:13.269Z,16.92
2023-04-16T22:22:41.601Z,13.00
2023-04-16T22:25:12.432Z,13.30
2023-04-16T22:27:40.743Z,16.52
2023-04-16T22:30:09.954Z,11.40
2023-04-16T22:32:38.482Z,12.27
2023-04-16T22:35:07.295Z,13.20
2023-04-16T22:37:35.747Z,13.10
2023-04-16T22:40:08.429Z,14.50
2023-04-16T22:42:38.325Z,11.48
2023-04-16T22:45:07.957Z,15.32
2023-04-16T22:47:36.173Z,12.13
2023-04-16T22:50:04.992Z,14.30
2023-04-16T22:52:33.426Z,12.68
2023-04-16T22:55:01.539Z,15.68
2023-04-16T22:57:29.662Z,11.20
2023-04-16T22:59:59.606Z,14.30
2023-04-16T23:02:28.006Z,11.10
2023-04-16T23:04:56.112Z,13.10
2023-04-16T23:07:24.487Z,11.98
2023-04-16T23:09:52.596Z,12.98
2023-04-16T23:12:20.977Z,14.60
2023-04-16T23:14:49.501Z,12.43
2023-04-16T23:17:18.938Z,13.00
2023-04-16T23:19:47.056Z,11.90
2023-04-16T23:22:15.435Z,12.45
2023-04-16T23:24:43.493Z,14.98
2023-04-16T23:27:12.180Z,14.05
2023-04-16T23:29:40.482Z,18.85
2023-04-16T23:32:08.567Z,13.18
2023-04-16T23:34:38.037Z,13.82
2023-04-16T23:37:06.157Z,14.48
2023-04-16T23:39:34.652Z,13.50
2023-04-16T23:42:03.183Z,11.75
2023-04-16T23:44:31.338Z,14.43
2023-04-16T23:46:59.880Z,12.88
2023-04-16T23:49:28.388Z,16.15
2023-04-16T23:51:58.170Z,15.02
2023-04-16T23:54:26.294Z,13.95
2023-04-16T23:56:54.719Z,12.70
2023-04-16T23:59:24.118Z,14.25
